Bei Facebook empfehlenBei Twitter postenGoogle plusPinterest

Das Wetter im Erzgebirge am 20.11.2016

Wetter und Klima am 20.11.2016 Holzhau im Erzgebirge (630m ü.NN)
Letzte gemessene Temperatur und Uhrzeit der Messung23:45:00 Uhr4.90 °C
Temperatur (Maximum / Höchstwert) und Uhrzeit der Messung14:30:00 Uhr5.60 °C
Temperatur (Minimum / Tiefstwert) und Uhrzeit der Messung01:00:00-1.40 °C
Errechneter Absolutwert der Temperaturschwankungen zwischen Tmin und Tmax des Tages7.00 K
Errechnete Tagesmitteltemperatur2.65417 °C
Gesamt - Niederschlag des Tages (in flüssiger Form)0.00 Liter / m²
Luftdruck (Maximum / Höchstwert) und Zeitpunkt der Messung00:00:00 Uhr1009.00 hPa
Luftdruck (Minimum / Tiefstwert) und Zeitpunkt der Messung16:00:00 Uhr1005.40 hPa
Errechneter Absolutwert der Luftdruckschwankungen des Tages3.60 hPa
Höchste gemessene Windgeschwindigkeit und Uhrzeit der Messung23:45:00 Uhr0.00 km/h
Errechnete Windhäufigkeit in Relation zu den Messwerten des Tages0.00000 %
Niedrigste Windkühle (Windchill) und Zeitpunkt der Messung01:00:00 Uhr-1.40 °C
Taupunkt (Maximum / Höchstwert) und Uhrzeit der Messung22:30:00 Uhr4.20 °C
Taupunkt (Minimum / Tiefstwert) und Uhrzeit der Messung01:00:00-2.30 °C
Anzahl der automatisch eingelesenen Messwerte 96

Detaillierte Wetter- und Klima- Messwerte für den 20.11.2016 in Holzhau im Erzgebirge (630m ü.NN)
ZeitTemperaturLuftdruckRel. LuftfeuchteWindWindrichtungWindchillTaupunktNiederschlag l/m²
23:45:004.90 °C1008.10 hPa92.00 %3.70 °C 
23:30:005.10 °C1007.90 hPa92.00 %3.90 °C 
23:15:004.90 °C1007.60 hPa92.00 %3.70 °C 
23:00:004.80 °C1007.50 hPa92.00 %3.60 °C 
22:45:005.00 °C1007.70 hPa93.00 %4.00 °C 
22:30:005.10 °C1007.40 hPa94.00 %4.20 °C 
22:15:004.90 °C1007.50 hPa94.00 %4.00 °C 
22:00:004.70 °C1007.40 hPa94.00 %3.80 °C 
21:45:004.40 °C1007.70 hPa95.00 %3.70 °C 
21:30:003.80 °C1007.50 hPa95.00 %3.10 °C 
21:15:003.80 °C1007.60 hPa95.00 %3.10 °C 
21:00:003.80 °C1007.30 hPa95.00 %3.10 °C 
20:45:003.80 °C1007.20 hPa95.00 %3.10 °C 
20:30:003.60 °C1007.30 hPa95.00 %2.90 °C 
20:15:003.60 °C1007.10 hPa95.00 %2.90 °C 
20:00:003.50 °C1007.10 hPa94.00 %2.60 °C 
19:45:003.60 °C1007.00 hPa94.00 %2.70 °C 
19:30:003.60 °C1007.10 hPa94.00 %2.70 °C 
19:15:003.80 °C1006.70 hPa94.00 %2.90 °C 
19:00:003.80 °C1006.80 hPa94.00 %2.90 °C 
18:45:003.80 °C1006.70 hPa94.00 %2.90 °C 
18:30:003.80 °C1006.90 hPa93.00 %2.80 °C 
18:15:003.80 °C1006.50 hPa93.00 %2.80 °C 
18:00:003.80 °C1006.50 hPa93.00 %2.80 °C 
17:45:003.80 °C1006.20 hPa93.00 %2.80 °C 
17:30:003.60 °C1006.50 hPa93.00 %2.60 °C 
17:15:003.30 °C1005.90 hPa93.00 %2.30 °C 
17:00:003.20 °C1005.70 hPa92.00 %2.00 °C 
16:45:003.00 °C1005.80 hPa91.00 %1.70 °C 
16:30:003.10 °C1005.80 hPa91.00 %1.80 °C 
16:15:003.20 °C1005.80 hPa90.00 %1.70 °C 
16:00:003.50 °C1005.40 hPa90.00 %2.00 °C 
15:45:003.80 °C1005.40 hPa89.00 %2.20 °C 
15:30:004.30 °C1005.40 hPa89.00 %2.70 °C 
15:15:005.00 °C1005.70 hPa89.00 %3.30 °C 
15:00:005.30 °C1005.80 hPa89.00 %3.60 °C 
14:45:005.40 °C1005.70 hPa89.00 %3.70 °C 
14:30:005.60 °C1005.50 hPa89.00 %3.90 °C 
14:15:005.60 °C1005.80 hPa90.00 %4.10 °C 
14:00:005.60 °C1005.50 hPa91.00 %4.20 °C 
13:45:005.20 °C1005.40 hPa92.00 %4.00 °C 
13:30:004.50 °C1005.60 hPa92.00 %3.30 °C 
13:15:004.10 °C1005.70 hPa92.00 %2.90 °C 
13:00:004.10 °C1005.60 hPa92.00 %2.90 °C 
12:45:003.80 °C1005.70 hPa92.00 %2.60 °C 
12:30:003.90 °C1005.80 hPa93.00 %2.90 °C 
12:15:003.50 °C1005.70 hPa93.00 %2.50 °C 
12:00:003.20 °C1005.60 hPa93.00 %2.20 °C 
11:45:003.20 °C1005.80 hPa93.00 %2.20 °C 
11:30:003.10 °C1005.90 hPa93.00 %2.10 °C 
11:15:002.90 °C1005.80 hPa93.00 %1.90 °C 
11:00:002.90 °C1005.90 hPa93.00 %1.90 °C 
10:45:002.80 °C1005.90 hPa93.00 %1.80 °C 
10:30:002.70 °C1005.80 hPa93.00 %1.70 °C 
10:15:002.90 °C1006.10 hPa93.00 %1.90 °C 
10:00:002.90 °C1006.10 hPa93.00 %1.90 °C 
09:45:002.90 °C1006.30 hPa93.00 %1.90 °C 
09:30:002.80 °C1006.40 hPa94.00 %1.90 °C 
09:15:002.50 °C1006.50 hPa94.00 %1.60 °C 
09:00:002.40 °C1006.70 hPa94.00 %1.50 °C 
08:45:002.30 °C1006.60 hPa94.00 %1.40 °C 
08:30:002.40 °C1006.90 hPa95.00 %1.70 °C 
08:15:002.20 °C1007.00 hPa95.00 %1.50 °C 
08:00:001.90 °C1007.00 hPa95.00 %1.20 °C 
07:45:001.50 °C1006.80 hPa95.00 %0.80 °C 
07:30:001.30 °C1006.50 hPa95.00 %0.60 °C 
07:15:001.20 °C1006.70 hPa95.00 %0.50 °C 
07:00:001.30 °C1006.70 hPa95.00 %0.60 °C 
06:45:001.30 °C1006.90 hPa95.00 %0.60 °C 
06:30:001.50 °C1006.90 hPa95.00 %0.80 °C 
06:15:001.50 °C1006.90 hPa95.00 %0.80 °C 
06:00:001.50 °C1007.70 hPa95.00 %0.80 °C 
05:45:001.40 °C1007.80 hPa95.00 %0.70 °C 
05:30:001.30 °C1007.70 hPa95.00 %0.60 °C 
05:15:001.30 °C1007.60 hPa95.00 %0.60 °C 
05:00:001.20 °C1007.70 hPa95.00 %0.50 °C 
04:45:000.90 °C1007.90 hPa95.00 %0.20 °C 
04:30:000.90 °C1008.10 hPa95.00 %0.20 °C 
04:15:000.80 °C1008.20 hPa95.00 %0.10 °C 
04:00:000.80 °C1008.10 hPa95.00 %0.10 °C 
03:45:000.50 °C1008.30 hPa95.00 %-0.20 °C 
03:30:000.50 °C1008.20 hPa95.00 %-0.20 °C 
03:15:000.40 °C1008.50 hPa95.00 %-0.30 °C 
03:00:000.30 °C1008.60 hPa95.00 %-0.40 °C 
02:45:000.00 °C1008.60 hPa95.00 %-0.80 °C 
02:30:00-0.10 °C1008.80 hPa94.00 %-1.00 °C 
02:15:00-0.10 °C1008.50 hPa94.00 %-1.00 °C 
02:00:00-0.20 °C1008.50 hPa94.00 %-1.10 °C 
01:45:00-0.70 °C1008.50 hPa94.00 %-1.60 °C 
01:30:00-0.90 °C1008.70 hPa94.00 %-1.80 °C 
01:15:00-1.30 °C1008.60 hPa94.00 %-2.20 °C 
01:00:00-1.40 °C1008.70 hPa94.00 %-2.30 °C 
00:45:00-1.10 °C1008.80 hPa94.00 %-2.00 °C 
00:30:00-1.00 °C1008.80 hPa94.00 %-1.90 °C 
00:15:00-0.90 °C1008.90 hPa93.00 %-2.00 °C 
00:00:00-1.00 °C1009.00 hPa93.00 %-2.10 °C 

Permanenter Link zu dieser Seite: Wetter im Erzgebirge am 20.11.2016
Performance-Info: Die Erstellung der Seite / Statistik(en) / Tabelle(n) erforderte 5 Datenbankserver-Abfrage(n) und dauerte 98 Millisekunden. (Dieser Messwert ist von der Gesamt-Auslastung des Servers abhängig.)
Erzgebirge - Wetter | Erzgebirge - Wetter (Mobilgeräte) | Komplette Klimadatenbank